sensor_id;sensor_type;location;lat;lon;timestamp;temperature;humidity
29237;DHT22;16266;50.866;4.398;2022-12-29T00:00:05;11.60;99.90
29237;DHT22;16266;50.866;4.398;2022-12-29T00:02:32;11.60;99.90
29237;DHT22;16266;50.866;4.398;2022-12-29T00:04:57;11.60;99.90
29237;DHT22;16266;50.866;4.398;2022-12-29T00:07:23;11.60;99.90
29237;DHT22;16266;50.866;4.398;2022-12-29T00:09:49;11.60;99.90
29237;DHT22;16266;50.866;4.398;2022-12-29T00:12:14;11.60;99.90
29237;DHT22;16266;50.866;4.398;2022-12-29T00:14:40;11.60;99.90
29237;DHT22;16266;50.866;4.398;2022-12-29T00:17:24;11.70;99.90
29237;DHT22;16266;50.866;4.398;2022-12-29T00:19:50;11.70;99.90
29237;DHT22;16266;50.866;4.398;2022-12-29T00:22:34;11.70;99.90
29237;DHT22;16266;50.866;4.398;2022-12-29T00:25:18;11.70;99.90
29237;DHT22;16266;50.866;4.398;2022-12-29T00:28:16;11.70;99.90
29237;DHT22;16266;50.866;4.398;2022-12-29T00:31:01;11.70;99.90
29237;DHT22;16266;50.866;4.398;2022-12-29T00:33:45;11.70;99.90
29237;DHT22;16266;50.866;4.398;2022-12-29T00:36:39;11.80;99.90
29237;DHT22;16266;50.866;4.398;2022-12-29T00:39:11;11.80;99.90
29237;DHT22;16266;50.866;4.398;2022-12-29T00:41:56;11.90;99.90
29237;DHT22;16266;50.866;4.398;2022-12-29T00:44:40;11.90;99.90
29237;DHT22;16266;50.866;4.398;2022-12-29T00:47:05;12.00;99.90
29237;DHT22;16266;50.866;4.398;2022-12-29T00:49:32;12.00;99.90
29237;DHT22;16266;50.866;4.398;2022-12-29T00:52:01;12.00;99.90
29237;DHT22;16266;50.866;4.398;2022-12-29T00:54:30;12.10;99.90
29237;DHT22;16266;50.866;4.398;2022-12-29T00:56:56;12.10;99.90
29237;DHT22;16266;50.866;4.398;2022-12-29T00:59:21;12.10;99.90
29237;DHT22;16266;50.866;4.398;2022-12-29T01:01:50;12.10;99.90
29237;DHT22;16266;50.866;4.398;2022-12-29T01:04:16;12.10;99.90
29237;DHT22;16266;50.866;4.398;2022-12-29T01:06:42;12.20;99.90
29237;DHT22;16266;50.866;4.398;2022-12-29T01:09:08;12.10;99.90
29237;DHT22;16266;50.866;4.398;2022-12-29T01:11:52;12.10;99.90
29237;DHT22;16266;50.866;4.398;2022-12-29T01:14:19;12.10;99.90
29237;DHT22;16266;50.866;4.398;2022-12-29T01:16:45;12.10;99.90
29237;DHT22;16266;50.866;4.398;2022-12-29T01:19:12;12.10;99.90
29237;DHT22;16266;50.866;4.398;2022-12-29T01:21:38;11.90;99.90
29237;DHT22;16266;50.866;4.398;2022-12-29T01:24:03;11.70;99.90
29237;DHT22;16266;50.866;4.398;2022-12-29T01:26:29;11.60;99.90
29237;DHT22;16266;50.866;4.398;2022-12-29T01:28:55;11.60;99.90
29237;DHT22;16266;50.866;4.398;2022-12-29T01:31:21;11.40;99.90
29237;DHT22;16266;50.866;4.398;2022-12-29T01:33:46;11.40;99.90
29237;DHT22;16266;50.866;4.398;2022-12-29T01:36:14;11.40;99.90
29237;DHT22;16266;50.866;4.398;2022-12-29T01:38:41;11.30;99.90
29237;DHT22;16266;50.866;4.398;2022-12-29T01:41:08;11.20;99.90
29237;DHT22;16266;50.866;4.398;2022-12-29T01:43:43;11.20;99.90
29237;DHT22;16266;50.866;4.398;2022-12-29T01:48:46;11.10;99.90
29237;DHT22;16266;50.866;4.398;2022-12-29T01:51:13;11.10;99.90
29237;DHT22;16266;50.866;4.398;2022-12-29T01:53:39;11.20;99.90
29237;DHT22;16266;50.866;4.398;2022-12-29T01:56:07;11.20;99.90
29237;DHT22;16266;50.866;4.398;2022-12-29T01:58:39;11.20;99.90
29237;DHT22;16266;50.866;4.398;2022-12-29T02:01:06;11.20;99.90
29237;DHT22;16266;50.866;4.398;2022-12-29T02:03:32;11.20;99.90
29237;DHT22;16266;50.866;4.398;2022-12-29T02:08:30;11.10;99.90
29237;DHT22;16266;50.866;4.398;2022-12-29T02:10:57;11.10;99.90
29237;DHT22;16266;50.866;4.398;2022-12-29T02:13:24;11.00;99.90
29237;DHT22;16266;50.866;4.398;2022-12-29T02:38:07;10.40;99.90
29237;DHT22;16266;50.866;4.398;2022-12-29T02:50:53;10.20;99.90
29237;DHT22;16266;50.866;4.398;2022-12-29T02:53:23;10.20;99.90
29237;DHT22;16266;50.866;4.398;2022-12-29T02:56:08;10.30;99.90
29237;DHT22;16266;50.866;4.398;2022-12-29T02:58:34;10.30;99.90
29237;DHT22;16266;50.866;4.398;2022-12-29T03:04:32;10.30;99.90
29237;DHT22;16266;50.866;4.398;2022-12-29T03:07:23;10.30;99.90
29237;DHT22;16266;50.866;4.398;2022-12-29T03:10:02;10.20;99.90
29237;DHT22;16266;50.866;4.398;2022-12-29T03:12:37;10.20;99.90
29237;DHT22;16266;50.866;4.398;2022-12-29T03:15:41;10.00;99.90
29237;DHT22;16266;50.866;4.398;2022-12-29T03:21:52;9.90;99.90
29237;DHT22;16266;50.866;4.398;2022-12-29T03:24:43;9.80;99.90
29237;DHT22;16266;50.866;4.398;2022-12-29T03:27:13;9.90;99.90
29237;DHT22;16266;50.866;4.398;2022-12-29T03:29:47;9.80;99.90
29237;DHT22;16266;50.866;4.398;2022-12-29T03:32:20;9.80;99.90
29237;DHT22;16266;50.866;4.398;2022-12-29T03:34:49;9.80;99.90
29237;DHT22;16266;50.866;4.398;2022-12-29T03:37:18;9.90;99.90
29237;DHT22;16266;50.866;4.398;2022-12-29T03:39:46;9.90;99.90
29237;DHT22;16266;50.866;4.398;2022-12-29T03:42:20;9.90;99.90
29237;DHT22;16266;50.866;4.398;2022-12-29T03:44:47;9.90;99.90
29237;DHT22;16266;50.866;4.398;2022-12-29T03:47:14;10.00;99.90
29237;DHT22;16266;50.866;4.398;2022-12-29T03:49:40;10.00;99.90
29237;DHT22;16266;50.866;4.398;2022-12-29T03:52:06;10.00;99.90
29237;DHT22;16266;50.866;4.398;2022-12-29T03:54:32;10.00;99.90
29237;DHT22;16266;50.866;4.398;2022-12-29T03:56:58;10.00;99.90
29237;DHT22;16266;50.866;4.398;2022-12-29T03:59:23;10.10;99.90
29237;DHT22;16266;50.866;4.398;2022-12-29T04:01:49;10.10;99.90
29237;DHT22;16266;50.866;4.398;2022-12-29T04:04:15;10.10;99.90
29237;DHT22;16266;50.866;4.398;2022-12-29T04:06:41;10.00;99.90
29237;DHT22;16266;50.866;4.398;2022-12-29T04:09:06;10.00;99.90
29237;DHT22;16266;50.866;4.398;2022-12-29T04:11:32;9.90;99.90
29237;DHT22;16266;50.866;4.398;2022-12-29T04:13:58;9.80;99.90
29237;DHT22;16266;50.866;4.398;2022-12-29T04:16:23;9.80;99.90
29237;DHT22;16266;50.866;4.398;2022-12-29T04:18:49;9.80;99.90
29237;DHT22;16266;50.866;4.398;2022-12-29T04:21:15;9.80;99.90
29237;DHT22;16266;50.866;4.398;2022-12-29T04:23:40;9.70;99.90
29237;DHT22;16266;50.866;4.398;2022-12-29T04:26:07;9.70;99.90
29237;DHT22;16266;50.866;4.398;2022-12-29T04:28:33;9.60;99.90
29237;DHT22;16266;50.866;4.398;2022-12-29T04:30:59;9.60;99.90
29237;DHT22;16266;50.866;4.398;2022-12-29T04:33:25;9.60;99.90
29237;DHT22;16266;50.866;4.398;2022-12-29T04:35:51;9.60;99.90
29237;DHT22;16266;50.866;4.398;2022-12-29T04:38:20;9.60;99.90
29237;DHT22;16266;50.866;4.398;2022-12-29T04:40:46;9.70;99.90
29237;DHT22;16266;50.866;4.398;2022-12-29T04:43:12;9.90;99.90
29237;DHT22;16266;50.866;4.398;2022-12-29T04:45:42;9.90;99.90
29237;DHT22;16266;50.866;4.398;2022-12-29T04:48:08;10.00;99.90
29237;DHT22;16266;50.866;4.398;2022-12-29T04:50:33;9.90;99.90
29237;DHT22;16266;50.866;4.398;2022-12-29T04:53:00;9.90;99.90
29237;DHT22;16266;50.866;4.398;2022-12-29T04:55:26;9.90;99.90
29237;DHT22;16266;50.866;4.398;2022-12-29T04:57:52;10.00;99.90
29237;DHT22;16266;50.866;4.398;2022-12-29T05:00:17;10.00;99.90
29237;DHT22;16266;50.866;4.398;2022-12-29T05:02:43;10.00;99.90
29237;DHT22;16266;50.866;4.398;2022-12-29T05:05:09;10.10;99.90
29237;DHT22;16266;50.866;4.398;2022-12-29T05:07:35;10.10;99.90
29237;DHT22;16266;50.866;4.398;2022-12-29T05:10:00;10.10;99.90
29237;DHT22;16266;50.866;4.398;2022-12-29T05:12:29;10.20;99.90
29237;DHT22;16266;50.866;4.398;2022-12-29T05:14:55;10.10;99.90
29237;DHT22;16266;50.866;4.398;2022-12-29T05:17:21;10.10;99.90
29237;DHT22;16266;50.866;4.398;2022-12-29T05:19:46;10.10;99.90
29237;DHT22;16266;50.866;4.398;2022-12-29T05:22:12;10.10;99.90
29237;DHT22;16266;50.866;4.398;2022-12-29T05:24:38;10.20;99.90
29237;DHT22;16266;50.866;4.398;2022-12-29T05:27:03;10.30;99.90
29237;DHT22;16266;50.866;4.398;2022-12-29T05:29:29;10.30;99.90
29237;DHT22;16266;50.866;4.398;2022-12-29T05:31:54;10.30;99.90
29237;DHT22;16266;50.866;4.398;2022-12-29T05:34:20;10.30;99.90
29237;DHT22;16266;50.866;4.398;2022-12-29T05:36:46;10.40;99.90
29237;DHT22;16266;50.866;4.398;2022-12-29T05:39:11;10.40;99.90
29237;DHT22;16266;50.866;4.398;2022-12-29T05:41:37;10.40;99.90
29237;DHT22;16266;50.866;4.398;2022-12-29T05:44:03;10.50;99.90
29237;DHT22;16266;50.866;4.398;2022-12-29T05:46:28;10.40;99.90
29237;DHT22;16266;50.866;4.398;2022-12-29T05:48:54;10.40;99.90
29237;DHT22;16266;50.866;4.398;2022-12-29T05:51:20;10.40;99.90
29237;DHT22;16266;50.866;4.398;2022-12-29T05:53:45;10.40;99.90
29237;DHT22;16266;50.866;4.398;2022-12-29T05:56:11;10.40;99.90
29237;DHT22;16266;50.866;4.398;2022-12-29T05:58:36;10.40;99.90
29237;DHT22;16266;50.866;4.398;2022-12-29T06:01:02;10.20;99.90
29237;DHT22;16266;50.866;4.398;2022-12-29T06:03:28;10.10;99.90
29237;DHT22;16266;50.866;4.398;2022-12-29T06:05:53;10.10;99.90
29237;DHT22;16266;50.866;4.398;2022-12-29T06:08:19;10.10;99.90
29237;DHT22;16266;50.866;4.398;2022-12-29T06:10:45;10.10;99.90
29237;DHT22;16266;50.866;4.398;2022-12-29T06:13:11;10.10;99.90
29237;DHT22;16266;50.866;4.398;2022-12-29T06:15:36;10.10;99.90
29237;DHT22;16266;50.866;4.398;2022-12-29T06:18:02;10.10;99.90
29237;DHT22;16266;50.866;4.398;2022-12-29T06:20:28;10.00;99.90
29237;DHT22;16266;50.866;4.398;2022-12-29T06:22:53;10.00;99.90
29237;DHT22;16266;50.866;4.398;2022-12-29T06:25:19;9.90;99.90
29237;DHT22;16266;50.866;4.398;2022-12-29T06:27:45;9.90;99.90
29237;DHT22;16266;50.866;4.398;2022-12-29T06:30:12;9.90;99.90
29237;DHT22;16266;50.866;4.398;2022-12-29T06:32:38;9.90;99.90
29237;DHT22;16266;50.866;4.398;2022-12-29T06:35:04;9.90;99.90
29237;DHT22;16266;50.866;4.398;2022-12-29T06:37:31;10.00;99.90
29237;DHT22;16266;50.866;4.398;2022-12-29T06:39:57;10.00;99.90
29237;DHT22;16266;50.866;4.398;2022-12-29T06:42:23;10.20;99.90
29237;DHT22;16266;50.866;4.398;2022-12-29T06:44:48;10.30;99.90
29237;DHT22;16266;50.866;4.398;2022-12-29T06:47:15;10.40;99.90
29237;DHT22;16266;50.866;4.398;2022-12-29T06:49:40;10.50;99.90
29237;DHT22;16266;50.866;4.398;2022-12-29T06:52:06;10.50;99.90
29237;DHT22;16266;50.866;4.398;2022-12-29T06:54:32;10.50;99.90
29237;DHT22;16266;50.866;4.398;2022-12-29T06:56:58;10.50;99.90
29237;DHT22;16266;50.866;4.398;2022-12-29T06:59:24;10.60;99.90
29237;DHT22;16266;50.866;4.398;2022-12-29T07:01:51;10.50;99.90
29237;DHT22;16266;50.866;4.398;2022-12-29T07:04:16;10.50;99.90
29237;DHT22;16266;50.866;4.398;2022-12-29T07:06:42;10.50;99.90
29237;DHT22;16266;50.866;4.398;2022-12-29T07:09:08;10.60;99.90
29237;DHT22;16266;50.866;4.398;2022-12-29T07:11:34;10.50;99.90
29237;DHT22;16266;50.866;4.398;2022-12-29T07:14:00;10.50;99.90
29237;DHT22;16266;50.866;4.398;2022-12-29T07:16:25;10.50;99.90
29237;DHT22;16266;50.866;4.398;2022-12-29T07:18:51;10.40;99.90
29237;DHT22;16266;50.866;4.398;2022-12-29T07:21:18;10.40;99.90
29237;DHT22;16266;50.866;4.398;2022-12-29T07:23:43;10.50;99.90
29237;DHT22;16266;50.866;4.398;2022-12-29T07:26:13;10.50;99.90
29237;DHT22;16266;50.866;4.398;2022-12-29T07:28:39;10.60;99.90
29237;DHT22;16266;50.866;4.398;2022-12-29T07:31:05;10.60;99.90
29237;DHT22;16266;50.866;4.398;2022-12-29T07:33:32;10.70;99.90
29237;DHT22;16266;50.866;4.398;2022-12-29T07:35:58;10.60;99.90
29237;DHT22;16266;50.866;4.398;2022-12-29T07:38:24;10.70;99.90
29237;DHT22;16266;50.866;4.398;2022-12-29T07:40:50;10.70;99.90
29237;DHT22;16266;50.866;4.398;2022-12-29T07:43:16;10.70;99.90
29237;DHT22;16266;50.866;4.398;2022-12-29T07:45:41;10.70;99.90
29237;DHT22;16266;50.866;4.398;2022-12-29T07:48:07;10.80;99.90
29237;DHT22;16266;50.866;4.398;2022-12-29T07:50:35;10.80;99.90
29237;DHT22;16266;50.866;4.398;2022-12-29T07:53:01;10.70;99.90
29237;DHT22;16266;50.866;4.398;2022-12-29T07:55:27;10.80;99.90
29237;DHT22;16266;50.866;4.398;2022-12-29T07:57:53;10.80;99.90
29237;DHT22;16266;50.866;4.398;2022-12-29T08:00:20;10.80;99.90
29237;DHT22;16266;50.866;4.398;2022-12-29T08:02:46;10.80;99.90
29237;DHT22;16266;50.866;4.398;2022-12-29T08:05:11;10.80;99.90
29237;DHT22;16266;50.866;4.398;2022-12-29T08:07:37;10.90;99.90
29237;DHT22;16266;50.866;4.398;2022-12-29T08:10:03;10.90;99.90
29237;DHT22;16266;50.866;4.398;2022-12-29T08:12:29;10.90;99.90
29237;DHT22;16266;50.866;4.398;2022-12-29T08:14:55;10.90;99.90
29237;DHT22;16266;50.866;4.398;2022-12-29T08:17:20;10.80;99.90
29237;DHT22;16266;50.866;4.398;2022-12-29T08:19:46;10.80;99.90
29237;DHT22;16266;50.866;4.398;2022-12-29T08:22:13;10.90;99.90
29237;DHT22;16266;50.866;4.398;2022-12-29T08:24:39;10.90;99.90
29237;DHT22;16266;50.866;4.398;2022-12-29T08:27:11;10.90;99.90
29237;DHT22;16266;50.866;4.398;2022-12-29T08:29:48;10.90;99.90
29237;DHT22;16266;50.866;4.398;2022-12-29T08:32:14;11.00;99.90
29237;DHT22;16266;50.866;4.398;2022-12-29T08:34:39;11.00;99.90
29237;DHT22;16266;50.866;4.398;2022-12-29T08:37:05;11.00;99.90
29237;DHT22;16266;50.866;4.398;2022-12-29T08:39:31;11.00;99.90
29237;DHT22;16266;50.866;4.398;2022-12-29T08:41:57;11.10;99.90
29237;DHT22;16266;50.866;4.398;2022-12-29T08:44:23;11.10;99.90
29237;DHT22;16266;50.866;4.398;2022-12-29T08:46:49;11.10;99.90
29237;DHT22;16266;50.866;4.398;2022-12-29T08:49:15;11.10;99.90
29237;DHT22;16266;50.866;4.398;2022-12-29T08:51:40;11.10;99.90
29237;DHT22;16266;50.866;4.398;2022-12-29T08:54:06;11.10;99.90
29237;DHT22;16266;50.866;4.398;2022-12-29T08:56:32;11.10;99.90
29237;DHT22;16266;50.866;4.398;2022-12-29T08:58:57;11.10;99.90
29237;DHT22;16266;50.866;4.398;2022-12-29T09:01:23;11.10;99.90
29237;DHT22;16266;50.866;4.398;2022-12-29T09:03:49;11.20;99.90
29237;DHT22;16266;50.866;4.398;2022-12-29T09:06:17;11.20;99.90
29237;DHT22;16266;50.866;4.398;2022-12-29T09:08:43;11.10;99.90
29237;DHT22;16266;50.866;4.398;2022-12-29T09:11:17;10.90;99.90
29237;DHT22;16266;50.866;4.398;2022-12-29T09:13:43;10.80;99.90
29237;DHT22;16266;50.866;4.398;2022-12-29T09:16:09;10.80;99.90
29237;DHT22;16266;50.866;4.398;2022-12-29T09:18:35;10.80;99.90
29237;DHT22;16266;50.866;4.398;2022-12-29T09:21:03;10.70;99.90
29237;DHT22;16266;50.866;4.398;2022-12-29T09:23:30;10.60;99.90
29237;DHT22;16266;50.866;4.398;2022-12-29T09:25:55;10.70;99.90
29237;DHT22;16266;50.866;4.398;2022-12-29T09:28:22;10.60;99.90
29237;DHT22;16266;50.866;4.398;2022-12-29T09:30:47;10.50;99.90
29237;DHT22;16266;50.866;4.398;2022-12-29T09:33:13;10.50;99.90
29237;DHT22;16266;50.866;4.398;2022-12-29T09:35:53;10.50;99.90
29237;DHT22;16266;50.866;4.398;2022-12-29T09:38:19;10.40;99.90
29237;DHT22;16266;50.866;4.398;2022-12-29T09:40:51;10.20;99.90
29237;DHT22;16266;50.866;4.398;2022-12-29T09:48:49;10.20;99.90
29237;DHT22;16266;50.866;4.398;2022-12-29T09:51:17;10.10;99.90
29237;DHT22;16266;50.866;4.398;2022-12-29T09:53:53;10.20;99.90
29237;DHT22;16266;50.866;4.398;2022-12-29T09:56:23;10.20;99.90
29237;DHT22;16266;50.866;4.398;2022-12-29T09:59:10;10.40;99.90
29237;DHT22;16266;50.866;4.398;2022-12-29T10:01:51;10.40;99.90
29237;DHT22;16266;50.866;4.398;2022-12-29T10:04:18;10.50;99.90
29237;DHT22;16266;50.866;4.398;2022-12-29T10:07:03;10.60;99.90
29237;DHT22;16266;50.866;4.398;2022-12-29T10:09:46;10.70;99.90
29237;DHT22;16266;50.866;4.398;2022-12-29T10:15:08;10.70;99.90
29237;DHT22;16266;50.866;4.398;2022-12-29T10:21:00;10.70;99.90
29237;DHT22;16266;50.866;4.398;2022-12-29T10:23:42;10.80;99.90
29237;DHT22;16266;50.866;4.398;2022-12-29T10:26:21;10.80;99.90
29237;DHT22;16266;50.866;4.398;2022-12-29T10:28:52;11.00;99.90
29237;DHT22;16266;50.866;4.398;2022-12-29T10:31:43;11.10;99.90
29237;DHT22;16266;50.866;4.398;2022-12-29T10:34:45;11.30;99.90
29237;DHT22;16266;50.866;4.398;2022-12-29T10:39:50;11.60;99.90
29237;DHT22;16266;50.866;4.398;2022-12-29T10:42:36;11.80;99.90
29237;DHT22;16266;50.866;4.398;2022-12-29T10:45:05;12.00;99.90
29237;DHT22;16266;50.866;4.398;2022-12-29T10:47:38;12.00;99.90
29237;DHT22;16266;50.866;4.398;2022-12-29T10:50:05;12.10;99.90
29237;DHT22;16266;50.866;4.398;2022-12-29T10:52:33;12.20;99.90
29237;DHT22;16266;50.866;4.398;2022-12-29T10:55:08;12.10;99.90
29237;DHT22;16266;50.866;4.398;2022-12-29T10:57:43;12.10;99.90
29237;DHT22;16266;50.866;4.398;2022-12-29T11:00:20;12.30;99.90
29237;DHT22;16266;50.866;4.398;2022-12-29T11:05:53;12.60;99.90
29237;DHT22;16266;50.866;4.398;2022-12-29T11:08:31;12.60;99.90
29237;DHT22;16266;50.866;4.398;2022-12-29T11:11:04;12.60;99.90
29237;DHT22;16266;50.866;4.398;2022-12-29T11:13:32;12.70;99.90
29237;DHT22;16266;50.866;4.398;2022-12-29T11:15:58;12.70;99.90
29237;DHT22;16266;50.866;4.398;2022-12-29T11:18:34;12.70;99.90
29237;DHT22;16266;50.866;4.398;2022-12-29T11:21:07;12.90;99.90
29237;DHT22;16266;50.866;4.398;2022-12-29T11:23:59;13.20;99.90
29237;DHT22;16266;50.866;4.398;2022-12-29T11:26:27;13.70;99.90
29237;DHT22;16266;50.866;4.398;2022-12-29T11:29:22;14.20;99.90
29237;DHT22;16266;50.866;4.398;2022-12-29T11:31:52;13.60;99.90
29237;DHT22;16266;50.866;4.398;2022-12-29T11:34:33;13.50;99.90
29237;DHT22;16266;50.866;4.398;2022-12-29T11:37:20;13.10;99.90
29237;DHT22;16266;50.866;4.398;2022-12-29T11:40:03;12.50;99.90
29237;DHT22;16266;50.866;4.398;2022-12-29T11:42:39;11.90;99.90
29237;DHT22;16266;50.866;4.398;2022-12-29T11:45:16;11.70;99.90
29237;DHT22;16266;50.866;4.398;2022-12-29T11:47:49;11.50;99.90
29237;DHT22;16266;50.866;4.398;2022-12-29T11:50:21;11.60;99.90
29237;DHT22;16266;50.866;4.398;2022-12-29T11:52:49;11.50;99.90
29237;DHT22;16266;50.866;4.398;2022-12-29T11:55:21;11.40;99.90
29237;DHT22;16266;50.866;4.398;2022-12-29T11:57:48;11.40;99.90
29237;DHT22;16266;50.866;4.398;2022-12-29T12:00:20;11.30;99.90
29237;DHT22;16266;50.866;4.398;2022-12-29T12:03:15;11.30;99.90
29237;DHT22;16266;50.866;4.398;2022-12-29T12:06:10;11.40;99.90
29237;DHT22;16266;50.866;4.398;2022-12-29T12:08:45;11.40;99.90
29237;DHT22;16266;50.866;4.398;2022-12-29T12:11:19;11.30;99.90
29237;DHT22;16266;50.866;4.398;2022-12-29T12:14:00;11.20;99.90
29237;DHT22;16266;50.866;4.398;2022-12-29T12:16:33;11.20;99.90
29237;DHT22;16266;50.866;4.398;2022-12-29T12:19:14;11.30;99.90
29237;DHT22;16266;50.866;4.398;2022-12-29T12:21:45;11.40;99.90
29237;DHT22;16266;50.866;4.398;2022-12-29T12:24:45;11.10;99.90
29237;DHT22;16266;50.866;4.398;2022-12-29T12:27:30;10.80;99.90
29237;DHT22;16266;50.866;4.398;2022-12-29T12:30:07;10.70;99.90
29237;DHT22;16266;50.866;4.398;2022-12-29T12:35:26;10.80;99.90
29237;DHT22;16266;50.866;4.398;2022-12-29T12:38:15;11.00;99.90
29237;DHT22;16266;50.866;4.398;2022-12-29T13:00:21;11.40;99.90
29237;DHT22;16266;50.866;4.398;2022-12-29T13:08:54;11.30;99.90
29237;DHT22;16266;50.866;4.398;2022-12-29T13:11:35;11.20;99.90
29237;DHT22;16266;50.866;4.398;2022-12-29T13:22:35;11.20;99.90
29237;DHT22;16266;50.866;4.398;2022-12-29T13:38:41;11.40;99.90
29237;DHT22;16266;50.866;4.398;2022-12-29T13:41:53;11.20;99.90
29237;DHT22;16266;50.866;4.398;2022-12-29T13:44:00;11.10;99.90
29237;DHT22;16266;50.866;4.398;2022-12-29T13:46:33;11.10;99.90
29237;DHT22;16266;50.866;4.398;2022-12-29T13:49:15;11.10;99.90
29237;DHT22;16266;50.866;4.398;2022-12-29T13:51:56;11.20;99.90
29237;DHT22;16266;50.866;4.398;2022-12-29T14:00:45;11.10;99.90
29237;DHT22;16266;50.866;4.398;2022-12-29T14:03:24;10.90;99.90
29237;DHT22;16266;50.866;4.398;2022-12-29T14:08:38;10.80;99.90
29237;DHT22;16266;50.866;4.398;2022-12-29T14:11:15;10.90;99.90
29237;DHT22;16266;50.866;4.398;2022-12-29T14:13:44;10.80;99.90
29237;DHT22;16266;50.866;4.398;2022-12-29T14:18:50;11.10;99.90
29237;DHT22;16266;50.866;4.398;2022-12-29T14:23:43;11.00;99.90
29237;DHT22;16266;50.866;4.398;2022-12-29T14:26:12;11.00;99.90
29237;DHT22;16266;50.866;4.398;2022-12-29T14:28:39;11.00;99.90
29237;DHT22;16266;50.866;4.398;2022-12-29T14:36:37;11.20;99.90
29237;DHT22;16266;50.866;4.398;2022-12-29T14:39:04;11.30;99.90
29237;DHT22;16266;50.866;4.398;2022-12-29T14:41:59;11.40;99.90
29237;DHT22;16266;50.866;4.398;2022-12-29T14:44:26;11.40;99.90
29237;DHT22;16266;50.866;4.398;2022-12-29T14:46:59;11.00;99.90
29237;DHT22;16266;50.866;4.398;2022-12-29T14:49:28;10.30;99.90
29237;DHT22;16266;50.866;4.398;2022-12-29T14:57:37;9.40;99.90
29237;DHT22;16266;50.866;4.398;2022-12-29T15:00:26;9.30;99.90
29237;DHT22;16266;50.866;4.398;2022-12-29T15:03:04;9.20;99.90
29237;DHT22;16266;50.866;4.398;2022-12-29T15:05:46;9.10;99.90
29237;DHT22;16266;50.866;4.398;2022-12-29T15:08:18;9.00;99.90
29237;DHT22;16266;50.866;4.398;2022-12-29T15:11:00;8.90;99.90
29237;DHT22;16266;50.866;4.398;2022-12-29T15:13:38;8.80;99.90
29237;DHT22;16266;50.866;4.398;2022-12-29T15:16:20;8.70;99.90
29237;DHT22;16266;50.866;4.398;2022-12-29T15:18:46;8.60;99.90
29237;DHT22;16266;50.866;4.398;2022-12-29T15:21:13;8.50;99.90
29237;DHT22;16266;50.866;4.398;2022-12-29T15:23:43;8.40;99.90
29237;DHT22;16266;50.866;4.398;2022-12-29T15:26:10;8.40;99.90
29237;DHT22;16266;50.866;4.398;2022-12-29T15:28:38;8.40;99.90
29237;DHT22;16266;50.866;4.398;2022-12-29T15:31:10;8.50;99.90
29237;DHT22;16266;50.866;4.398;2022-12-29T15:33:39;8.50;99.90
29237;DHT22;16266;50.866;4.398;2022-12-29T15:36:11;8.40;99.90
29237;DHT22;16266;50.866;4.398;2022-12-29T15:38:39;8.30;99.90
29237;DHT22;16266;50.866;4.398;2022-12-29T15:46:13;8.10;99.90
29237;DHT22;16266;50.866;4.398;2022-12-29T15:48:40;8.10;99.90
29237;DHT22;16266;50.866;4.398;2022-12-29T15:51:41;8.10;99.90
29237;DHT22;16266;50.866;4.398;2022-12-29T15:54:19;8.30;99.90
29237;DHT22;16266;50.866;4.398;2022-12-29T15:56:46;8.40;99.90
29237;DHT22;16266;50.866;4.398;2022-12-29T15:59:33;8.40;99.90
29237;DHT22;16266;50.866;4.398;2022-12-29T16:02:00;8.40;99.90
29237;DHT22;16266;50.866;4.398;2022-12-29T16:04:29;8.30;99.90
29237;DHT22;16266;50.866;4.398;2022-12-29T16:06:58;8.10;99.90
29237;DHT22;16266;50.866;4.398;2022-12-29T16:09:35;8.10;99.90
29237;DHT22;16266;50.866;4.398;2022-12-29T16:12:19;8.00;99.90
29237;DHT22;16266;50.866;4.398;2022-12-29T16:14:47;7.90;99.90
29237;DHT22;16266;50.866;4.398;2022-12-29T16:17:17;7.90;99.90
29237;DHT22;16266;50.866;4.398;2022-12-29T16:19:51;7.90;99.90
29237;DHT22;16266;50.866;4.398;2022-12-29T16:22:34;7.80;99.90
29237;DHT22;16266;50.866;4.398;2022-12-29T16:25:09;7.80;99.90
29237;DHT22;16266;50.866;4.398;2022-12-29T16:27:45;7.80;99.90
29237;DHT22;16266;50.866;4.398;2022-12-29T16:30:28;7.80;99.90
29237;DHT22;16266;50.866;4.398;2022-12-29T16:33:00;7.90;99.90
29237;DHT22;16266;50.866;4.398;2022-12-29T16:35:48;7.90;99.90
29237;DHT22;16266;50.866;4.398;2022-12-29T16:38:21;7.90;99.90
29237;DHT22;16266;50.866;4.398;2022-12-29T16:41:01;7.80;99.90
29237;DHT22;16266;50.866;4.398;2022-12-29T16:43:31;7.80;99.90
29237;DHT22;16266;50.866;4.398;2022-12-29T16:48:35;7.80;99.90
29237;DHT22;16266;50.866;4.398;2022-12-29T16:51:16;7.70;99.90
29237;DHT22;16266;50.866;4.398;2022-12-29T16:53:48;7.80;99.90
29237;DHT22;16266;50.866;4.398;2022-12-29T16:56:20;7.80;99.90
29237;DHT22;16266;50.866;4.398;2022-12-29T16:58:48;7.80;99.90
29237;DHT22;16266;50.866;4.398;2022-12-29T17:01:14;7.90;99.90
29237;DHT22;16266;50.866;4.398;2022-12-29T17:03:50;7.80;99.90
29237;DHT22;16266;50.866;4.398;2022-12-29T17:06:19;7.80;99.90
29237;DHT22;16266;50.866;4.398;2022-12-29T17:08:45;7.80;99.90
29237;DHT22;16266;50.866;4.398;2022-12-29T17:16:48;7.70;99.90
29237;DHT22;16266;50.866;4.398;2022-12-29T17:19:20;7.70;99.90
29237;DHT22;16266;50.866;4.398;2022-12-29T17:21:46;7.70;99.90
29237;DHT22;16266;50.866;4.398;2022-12-29T17:24:17;7.70;99.90
29237;DHT22;16266;50.866;4.398;2022-12-29T17:26:45;7.80;99.90
29237;DHT22;16266;50.866;4.398;2022-12-29T17:29:24;7.70;99.90
29237;DHT22;16266;50.866;4.398;2022-12-29T17:31:53;7.70;99.90
29237;DHT22;16266;50.866;4.398;2022-12-29T17:34:19;7.70;99.90
29237;DHT22;16266;50.866;4.398;2022-12-29T17:36:45;7.70;99.90
29237;DHT22;16266;50.866;4.398;2022-12-29T17:39:10;7.70;99.90
29237;DHT22;16266;50.866;4.398;2022-12-29T17:41:36;7.60;99.90
29237;DHT22;16266;50.866;4.398;2022-12-29T17:44:03;7.60;99.90
29237;DHT22;16266;50.866;4.398;2022-12-29T17:46:29;7.50;99.90
29237;DHT22;16266;50.866;4.398;2022-12-29T17:48:55;7.50;99.90
29237;DHT22;16266;50.866;4.398;2022-12-29T17:51:21;7.50;99.90
29237;DHT22;16266;50.866;4.398;2022-12-29T17:53:47;7.60;99.90
29237;DHT22;16266;50.866;4.398;2022-12-29T17:56:14;7.60;99.90
29237;DHT22;16266;50.866;4.398;2022-12-29T17:58:40;7.50;99.90
29237;DHT22;16266;50.866;4.398;2022-12-29T18:01:06;7.50;99.90
29237;DHT22;16266;50.866;4.398;2022-12-29T18:03:34;7.50;99.90
29237;DHT22;16266;50.866;4.398;2022-12-29T18:06:01;7.60;99.90
29237;DHT22;16266;50.866;4.398;2022-12-29T18:08:28;7.50;99.90
29237;DHT22;16266;50.866;4.398;2022-12-29T18:10:55;7.40;99.90
29237;DHT22;16266;50.866;4.398;2022-12-29T18:13:26;7.40;99.90
29237;DHT22;16266;50.866;4.398;2022-12-29T18:15:52;7.50;99.90
29237;DHT22;16266;50.866;4.398;2022-12-29T18:18:20;7.50;99.90
29237;DHT22;16266;50.866;4.398;2022-12-29T18:20:48;7.40;99.90
29237;DHT22;16266;50.866;4.398;2022-12-29T18:23:34;7.40;99.90
29237;DHT22;16266;50.866;4.398;2022-12-29T18:26:12;7.40;99.90